createdAt,value
2023-03-30T00:01:15.108Z,7.70
2023-03-30T00:03:43.538Z,7.40
2023-03-30T00:06:11.633Z,7.90
2023-03-30T00:08:38.333Z,7.40
2023-03-30T00:11:11.896Z,7.40
2023-03-30T00:13:38.869Z,7.70
2023-03-30T00:16:08.061Z,7.80
2023-03-30T00:18:34.774Z,7.70
2023-03-30T00:21:04.884Z,7.90
2023-03-30T00:23:32.382Z,7.40
2023-03-30T00:25:59.599Z,7.40
2023-03-30T00:28:30.854Z,8.00
2023-03-30T00:30:58.279Z,7.40
2023-03-30T00:33:37.217Z,7.10
2023-03-30T00:36:11.706Z,6.90
2023-03-30T00:38:38.335Z,7.90
2023-03-30T00:41:05.583Z,9.80
2023-03-30T00:43:33.637Z,9.10
2023-03-30T00:46:00.529Z,8.40
2023-03-30T00:48:34.834Z,8.10
2023-03-30T00:51:12.224Z,7.50
2023-03-30T00:53:47.198Z,7.50
2023-03-30T00:56:16.565Z,6.90
2023-03-30T00:58:44.773Z,7.50
2023-03-30T01:01:25.880Z,7.00
2023-03-30T01:03:53.975Z,7.10
2023-03-30T01:06:29.852Z,6.70
2023-03-30T01:09:00.917Z,6.10
2023-03-30T01:11:28.113Z,5.60
2023-03-30T01:14:02.009Z,6.00
2023-03-30T01:16:38.394Z,5.70
2023-03-30T01:19:34.961Z,5.30
2023-03-30T01:22:22.904Z,5.10
2023-03-30T01:25:17.888Z,5.10
2023-03-30T01:27:50.124Z,5.20
2023-03-30T01:30:22.882Z,5.30
2023-03-30T01:33:17.707Z,5.20
2023-03-30T01:35:59.644Z,5.20
2023-03-30T01:38:44.804Z,5.30
2023-03-30T01:41:40.465Z,4.90
2023-03-30T01:44:25.776Z,4.70
2023-03-30T01:47:06.429Z,4.50
2023-03-30T01:49:46.241Z,4.30
2023-03-30T01:52:28.685Z,4.60
2023-03-30T01:55:04.686Z,4.30
2023-03-30T01:57:52.162Z,4.70
2023-03-30T02:00:22.805Z,4.30
2023-03-30T02:02:55.862Z,4.60
2023-03-30T02:05:24.785Z,4.20
2023-03-30T02:08:01.488Z,4.30
2023-03-30T02:10:32.572Z,4.10
2023-03-30T02:13:01.028Z,4.50
2023-03-30T02:15:50.248Z,4.20
2023-03-30T02:18:16.887Z,3.70
2023-03-30T02:20:43.359Z,3.80
2023-03-30T02:23:09.903Z,3.90
2023-03-30T02:25:38.596Z,3.40
2023-03-30T02:28:07.636Z,3.60
2023-03-30T02:30:38.273Z,3.80
2023-03-30T02:33:05.550Z,3.10
2023-03-30T02:35:35.190Z,3.30
2023-03-30T02:38:17.133Z,3.20
2023-03-30T02:40:51.704Z,3.60
2023-03-30T02:43:42.914Z,3.20
2023-03-30T02:46:27.724Z,3.30
2023-03-30T02:49:10.447Z,3.20
2023-03-30T02:52:05.858Z,3.20
2023-03-30T02:54:50.954Z,3.40
2023-03-30T02:57:42.031Z,3.00
2023-03-30T03:00:18.829Z,3.20
2023-03-30T03:02:53.120Z,3.10
2023-03-30T03:05:20.812Z,3.30
2023-03-30T03:07:48.209Z,3.30
2023-03-30T03:10:15.053Z,3.10
2023-03-30T03:12:44.253Z,2.90
2023-03-30T03:15:12.500Z,3.10
2023-03-30T03:17:39.101Z,3.10
2023-03-30T03:20:08.076Z,2.90
2023-03-30T03:22:34.465Z,3.10
2023-03-30T03:25:02.569Z,2.80
2023-03-30T03:27:29.130Z,2.80
2023-03-30T03:29:55.574Z,2.90
2023-03-30T03:32:22.141Z,3.00
2023-03-30T03:34:49.218Z,2.60
2023-03-30T03:37:15.870Z,2.80
2023-03-30T03:39:42.399Z,2.90
2023-03-30T03:42:08.901Z,2.70
2023-03-30T03:44:37.701Z,2.90
2023-03-30T03:47:04.427Z,2.60
2023-03-30T03:49:31.158Z,2.60
2023-03-30T03:51:57.674Z,2.70
2023-03-30T03:54:24.195Z,2.50
2023-03-30T03:56:52.119Z,2.40
2023-03-30T03:59:18.640Z,2.40
2023-03-30T04:01:45.401Z,2.20
2023-03-30T04:04:12.002Z,2.30
2023-03-30T04:06:38.489Z,2.40
2023-03-30T04:09:04.882Z,2.50
2023-03-30T04:11:31.564Z,2.40
2023-03-30T04:13:57.944Z,2.40
2023-03-30T04:16:24.422Z,2.30
2023-03-30T04:18:50.906Z,2.50
2023-03-30T04:21:17.812Z,2.60
2023-03-30T04:23:49.135Z,2.60
2023-03-30T04:26:17.549Z,2.40
2023-03-30T04:28:44.238Z,2.90
2023-03-30T04:31:10.849Z,2.20
2023-03-30T04:33:46.991Z,2.60
2023-03-30T04:36:17.867Z,2.30
2023-03-30T04:38:45.446Z,2.60
2023-03-30T04:41:14.149Z,2.40
2023-03-30T04:43:40.840Z,2.30
2023-03-30T04:46:07.300Z,2.10
2023-03-30T04:48:33.820Z,2.20
2023-03-30T04:51:00.309Z,2.50
2023-03-30T04:53:26.776Z,2.30
2023-03-30T04:55:53.187Z,2.20
2023-03-30T04:58:19.571Z,2.10
2023-03-30T05:00:46.021Z,2.30
2023-03-30T05:03:12.613Z,2.20
2023-03-30T05:05:39.194Z,2.20
2023-03-30T05:08:06.123Z,2.30
2023-03-30T05:10:32.618Z,2.60
2023-03-30T05:12:59.019Z,2.10
2023-03-30T05:15:25.509Z,2.60
2023-03-30T05:17:52.034Z,2.60
2023-03-30T05:20:18.596Z,2.70
2023-03-30T05:22:46.952Z,2.10
2023-03-30T05:25:13.734Z,2.40
2023-03-30T05:27:40.246Z,2.30
2023-03-30T05:30:08.359Z,2.20
2023-03-30T05:32:35.520Z,2.10
2023-03-30T05:35:02.111Z,2.20
2023-03-30T05:37:28.608Z,2.10
2023-03-30T05:39:55.003Z,2.00
2023-03-30T05:42:21.704Z,2.20
2023-03-30T05:44:48.289Z,2.10
2023-03-30T05:47:14.691Z,2.10
2023-03-30T05:49:41.097Z,2.20
2023-03-30T05:52:11.588Z,2.10
2023-03-30T05:54:37.993Z,2.40
2023-03-30T05:57:04.483Z,2.00
2023-03-30T05:59:31.060Z,2.00
2023-03-30T06:01:57.512Z,2.00
2023-03-30T06:04:23.998Z,1.90
2023-03-30T06:06:50.625Z,2.00
2023-03-30T06:09:17.063Z,1.90
2023-03-30T06:11:43.446Z,2.10
2023-03-30T06:14:10.700Z,1.80
2023-03-30T06:16:38.022Z,2.10
2023-03-30T06:19:04.813Z,1.90
2023-03-30T06:21:31.475Z,1.70
2023-03-30T06:23:57.918Z,1.60
2023-03-30T06:26:24.433Z,1.80
2023-03-30T06:28:50.923Z,1.70
2023-03-30T06:31:17.603Z,1.50
2023-03-30T06:33:45.093Z,1.30
2023-03-30T06:36:14.053Z,1.70
2023-03-30T06:38:43.634Z,1.50
2023-03-30T06:41:11.863Z,1.40
2023-03-30T06:43:39.449Z,1.60
2023-03-30T06:46:07.200Z,1.60
2023-03-30T06:48:34.011Z,1.60
2023-03-30T06:51:00.704Z,1.40
2023-03-30T06:53:28.352Z,1.50
2023-03-30T06:55:57.541Z,1.60
2023-03-30T06:58:26.151Z,1.50
2023-03-30T07:00:53.202Z,1.50
2023-03-30T07:03:20.414Z,1.80
2023-03-30T07:05:51.230Z,1.90
2023-03-30T07:08:19.411Z,1.50
2023-03-30T07:10:47.886Z,1.60
2023-03-30T07:13:16.533Z,1.50
2023-03-30T07:15:44.658Z,1.40
2023-03-30T07:18:11.208Z,1.70
2023-03-30T07:20:37.692Z,1.80
2023-03-30T07:23:04.493Z,1.60
2023-03-30T07:25:31.516Z,1.80
2023-03-30T07:27:58.241Z,1.60
2023-03-30T07:30:24.714Z,1.60
2023-03-30T07:32:51.460Z,1.50
2023-03-30T07:35:18.558Z,1.60
2023-03-30T07:37:45.794Z,1.80
2023-03-30T07:40:12.796Z,2.00
2023-03-30T07:42:39.603Z,1.80
2023-03-30T07:45:07.237Z,1.70
2023-03-30T07:47:33.825Z,1.80
2023-03-30T07:50:00.313Z,1.60
2023-03-30T07:52:27.311Z,1.60
2023-03-30T07:54:56.777Z,1.50
2023-03-30T07:57:23.504Z,1.60
2023-03-30T07:59:49.954Z,1.60
2023-03-30T08:02:17.430Z,1.60
2023-03-30T08:04:44.641Z,2.30
2023-03-30T08:07:11.799Z,1.50
2023-03-30T08:09:38.476Z,1.60
2023-03-30T08:12:05.061Z,1.50
2023-03-30T08:14:31.450Z,1.70
2023-03-30T08:16:57.880Z,1.30
2023-03-30T08:19:25.655Z,1.40
2023-03-30T08:21:52.102Z,1.60
2023-03-30T08:24:18.468Z,2.00
2023-03-30T08:26:44.918Z,1.70
2023-03-30T08:29:12.944Z,2.10
2023-03-30T08:31:39.594Z,1.50
2023-03-30T08:34:07.922Z,1.40
2023-03-30T08:36:34.481Z,1.30
2023-03-30T08:39:00.966Z,1.50
2023-03-30T08:41:31.768Z,1.30
2023-03-30T08:44:01.546Z,1.40
2023-03-30T08:46:30.068Z,1.70
2023-03-30T08:49:01.318Z,1.40
2023-03-30T08:51:30.045Z,1.50
2023-03-30T08:54:05.448Z,1.50
2023-03-30T08:56:34.026Z,1.40
2023-03-30T08:59:15.802Z,1.70
2023-03-30T09:01:58.268Z,1.80
2023-03-30T09:04:43.731Z,1.60
2023-03-30T09:07:17.750Z,1.80
2023-03-30T09:09:49.223Z,1.90
2023-03-30T09:12:37.976Z,1.80
2023-03-30T09:15:18.516Z,2.10
2023-03-30T09:18:00.702Z,1.80
2023-03-30T09:20:33.465Z,2.00
2023-03-30T09:23:02.137Z,2.00
2023-03-30T09:25:40.677Z,1.70
2023-03-30T09:28:29.989Z,1.50
2023-03-30T09:31:08.761Z,2.10
2023-03-30T09:33:44.063Z,1.60
2023-03-30T09:36:15.532Z,1.70
2023-03-30T09:38:43.570Z,1.50
2023-03-30T09:41:21.821Z,1.60
2023-03-30T09:43:51.244Z,1.70
2023-03-30T09:46:18.125Z,1.40
2023-03-30T09:48:46.778Z,1.60
2023-03-30T09:51:29.185Z,1.70
2023-03-30T09:54:03.518Z,1.50
2023-03-30T09:56:46.857Z,1.70
2023-03-30T09:59:30.844Z,1.40
2023-03-30T10:02:20.619Z,1.50
2023-03-30T10:04:53.514Z,1.80
2023-03-30T10:07:26.576Z,1.80
2023-03-30T10:09:53.700Z,2.00
2023-03-30T10:12:22.128Z,1.80
2023-03-30T10:14:55.047Z,2.00
2023-03-30T10:17:25.412Z,1.60
2023-03-30T10:20:20.701Z,2.00
2023-03-30T10:23:04.074Z,2.00
2023-03-30T10:25:33.716Z,1.90
2023-03-30T10:28:03.500Z,2.00
2023-03-30T10:30:31.733Z,1.90
2023-03-30T10:33:02.489Z,2.20
2023-03-30T10:35:37.671Z,2.30
2023-03-30T10:38:07.898Z,2.10
2023-03-30T10:40:37.755Z,2.20
2023-03-30T10:43:08.843Z,2.00
2023-03-30T10:45:45.070Z,2.00
2023-03-30T10:48:23.966Z,1.90
2023-03-30T10:51:31.855Z,2.10
2023-03-30T10:54:26.190Z,2.00
2023-03-30T10:57:16.564Z,1.00
2023-03-30T11:00:10.283Z,1.10
2023-03-30T11:03:00.948Z,0.80
2023-03-30T11:05:56.077Z,1.00
2023-03-30T11:08:44.348Z,1.10
2023-03-30T11:11:18.143Z,1.20
2023-03-30T11:13:53.482Z,1.00
2023-03-30T11:16:22.108Z,1.50
2023-03-30T11:18:57.249Z,1.50
2023-03-30T11:21:50.361Z,1.60
2023-03-30T11:24:24.569Z,1.20
2023-03-30T11:27:07.206Z,1.40
2023-03-30T11:30:04.539Z,1.20
2023-03-30T11:33:17.829Z,1.30
2023-03-30T11:35:54.117Z,1.50
2023-03-30T11:38:28.641Z,1.20
2023-03-30T11:41:04.493Z,1.40
2023-03-30T11:43:33.146Z,1.60
2023-03-30T11:46:09.270Z,1.70
2023-03-30T11:48:58.919Z,1.60
2023-03-30T11:51:25.591Z,1.20
2023-03-30T11:54:20.426Z,1.50
2023-03-30T11:56:56.334Z,1.40
2023-03-30T11:59:32.570Z,1.50
2023-03-30T12:02:08.161Z,1.70
2023-03-30T12:04:53.133Z,1.40
2023-03-30T12:07:49.499Z,1.60
2023-03-30T12:10:28.644Z,1.40
2023-03-30T12:12:56.353Z,1.20
2023-03-30T12:15:49.069Z,1.60
2023-03-30T12:18:26.810Z,1.40
2023-03-30T12:21:05.675Z,1.20
2023-03-30T12:23:44.830Z,1.60
2023-03-30T12:26:29.382Z,1.30
2023-03-30T12:29:38.942Z,1.50
2023-03-30T12:32:03.249Z,1.30
2023-03-30T12:34:36.388Z,1.40
2023-03-30T12:37:13.050Z,1.20
2023-03-30T12:39:49.481Z,1.20
2023-03-30T12:42:34.261Z,1.50
2023-03-30T12:45:16.509Z,1.40
2023-03-30T12:47:52.477Z,1.20
2023-03-30T12:50:40.472Z,1.20
2023-03-30T12:53:40.962Z,0.90
2023-03-30T12:56:19.681Z,1.10
2023-03-30T12:58:58.932Z,1.10
2023-03-30T13:01:44.405Z,0.60
2023-03-30T13:04:23.951Z,0.70
2023-03-30T13:06:52.698Z,0.80
2023-03-30T13:09:25.338Z,0.70
2023-03-30T13:11:54.561Z,0.60
2023-03-30T13:14:30.305Z,0.70
2023-03-30T13:16:57.032Z,0.80
2023-03-30T13:19:26.760Z,0.90
2023-03-30T13:21:57.844Z,1.20
2023-03-30T13:24:26.396Z,0.90
2023-03-30T13:26:54.098Z,0.90
2023-03-30T13:29:23.874Z,0.70
2023-03-30T13:32:15.452Z,1.20
2023-03-30T13:35:05.256Z,0.60
2023-03-30T13:37:46.255Z,0.70
2023-03-30T13:40:37.889Z,0.60
2023-03-30T13:43:33.048Z,0.80
2023-03-30T13:46:16.121Z,0.90
2023-03-30T13:48:59.693Z,0.80
2023-03-30T13:51:28.140Z,1.60
2023-03-30T13:54:03.494Z,1.00
2023-03-30T13:56:33.387Z,1.00
2023-03-30T13:59:10.248Z,0.80
2023-03-30T14:01:42.891Z,1.00
2023-03-30T14:04:13.727Z,0.80
2023-03-30T14:06:47.061Z,1.20
2023-03-30T14:09:20.261Z,1.00
2023-03-30T14:11:56.175Z,1.20
2023-03-30T14:14:28.975Z,1.20
2023-03-30T14:16:58.304Z,1.10
2023-03-30T14:19:37.293Z,1.10
2023-03-30T14:22:19.138Z,1.30
2023-03-30T14:25:03.847Z,1.10
2023-03-30T14:27:36.685Z,1.00
2023-03-30T14:30:20.668Z,1.30
2023-03-30T14:32:47.380Z,1.10
2023-03-30T14:35:20.944Z,1.30
2023-03-30T14:37:52.042Z,1.90
2023-03-30T14:40:23.601Z,1.30
2023-03-30T14:42:51.377Z,1.40
2023-03-30T14:45:19.385Z,1.30
2023-03-30T14:47:48.145Z,1.20
2023-03-30T14:50:16.827Z,1.20
2023-03-30T14:52:46.680Z,1.40
2023-03-30T14:55:24.840Z,1.80
2023-03-30T14:57:52.953Z,1.30
2023-03-30T15:00:22.763Z,1.60
2023-03-30T15:03:01.554Z,1.40
2023-03-30T15:05:38.874Z,1.60
2023-03-30T15:08:06.346Z,1.80
2023-03-30T15:10:38.482Z,1.20
2023-03-30T15:13:07.592Z,1.70
2023-03-30T15:15:35.225Z,1.70
2023-03-30T15:18:04.055Z,2.00
2023-03-30T15:20:31.883Z,1.60
2023-03-30T15:23:00.705Z,1.60
2023-03-30T15:25:35.654Z,1.80
2023-03-30T15:28:06.978Z,1.50
2023-03-30T15:30:43.873Z,1.50
2023-03-30T15:33:29.559Z,2.00
2023-03-30T15:35:56.269Z,1.60
2023-03-30T15:38:35.268Z,1.80
2023-03-30T15:41:02.750Z,1.70
2023-03-30T15:43:33.300Z,1.50
2023-03-30T15:46:07.618Z,1.40
2023-03-30T15:48:43.366Z,1.40
2023-03-30T15:51:39.301Z,1.50
2023-03-30T15:54:17.973Z,1.40
2023-03-30T15:56:49.346Z,1.40
2023-03-30T15:59:19.712Z,1.80
2023-03-30T16:01:55.527Z,1.60
2023-03-30T16:04:24.590Z,1.60
2023-03-30T16:06:52.710Z,1.40
2023-03-30T16:09:19.828Z,1.30
2023-03-30T16:11:47.382Z,1.40
2023-03-30T16:14:17.404Z,1.50
2023-03-30T16:16:44.716Z,1.50
2023-03-30T16:19:17.454Z,1.80
2023-03-30T16:21:45.513Z,1.70
2023-03-30T16:24:12.912Z,1.70
2023-03-30T16:26:40.063Z,2.30
2023-03-30T16:29:19.829Z,1.90
2023-03-30T16:31:46.552Z,1.90
2023-03-30T16:34:13.326Z,2.00
2023-03-30T16:36:40.335Z,1.90
2023-03-30T16:39:22.299Z,2.10
2023-03-30T16:41:49.562Z,2.30
2023-03-30T16:44:17.240Z,1.80
2023-03-30T16:46:45.218Z,2.20
2023-03-30T16:49:24.246Z,1.70
2023-03-30T16:51:54.473Z,1.80
2023-03-30T16:54:32.068Z,1.50
2023-03-30T16:57:01.294Z,1.40
2023-03-30T16:59:30.837Z,1.10
2023-03-30T17:01:58.839Z,1.40
2023-03-30T17:04:25.982Z,1.90
2023-03-30T17:06:54.841Z,1.50
2023-03-30T17:09:22.345Z,1.60
2023-03-30T17:11:49.319Z,2.30
2023-03-30T17:14:16.430Z,2.00
2023-03-30T17:16:43.250Z,1.80
2023-03-30T17:19:13.791Z,1.50
2023-03-30T17:21:43.036Z,1.90
2023-03-30T17:24:11.261Z,1.90
2023-03-30T17:26:38.225Z,2.00
2023-03-30T17:29:04.673Z,2.00
2023-03-30T17:31:31.437Z,1.90
2023-03-30T17:33:58.116Z,2.10
2023-03-30T17:36:26.515Z,1.90
2023-03-30T17:38:54.894Z,1.60
2023-03-30T17:41:21.337Z,1.90
2023-03-30T17:43:48.388Z,2.20
2023-03-30T17:46:17.933Z,2.00
2023-03-30T17:48:45.714Z,1.60
2023-03-30T17:51:12.278Z,1.70
2023-03-30T17:53:39.004Z,1.90
2023-03-30T17:56:06.309Z,1.80
2023-03-30T17:58:36.659Z,1.70
2023-03-30T18:01:08.966Z,1.80
2023-03-30T18:03:38.472Z,2.20
2023-03-30T18:06:06.496Z,1.80
2023-03-30T18:08:33.161Z,1.90
2023-03-30T18:11:01.167Z,1.90
2023-03-30T18:13:29.538Z,1.70
2023-03-30T18:15:58.393Z,1.80
2023-03-30T18:18:28.062Z,1.50
2023-03-30T18:21:05.372Z,2.10
2023-03-30T18:23:34.044Z,1.80
2023-03-30T18:26:02.267Z,1.80
2023-03-30T18:28:29.206Z,2.10
2023-03-30T18:31:00.763Z,2.20
2023-03-30T18:33:27.974Z,2.10
2023-03-30T18:35:56.888Z,2.20
2023-03-30T18:38:25.177Z,1.80
2023-03-30T18:40:57.468Z,2.20
2023-03-30T18:43:26.282Z,2.10
2023-03-30T18:45:53.802Z,2.40
2023-03-30T18:48:21.785Z,2.40
2023-03-30T18:50:53.248Z,2.70
2023-03-30T18:53:24.665Z,3.00
2023-03-30T18:55:53.325Z,3.20
2023-03-30T18:58:23.043Z,2.90
2023-03-30T19:00:51.779Z,3.10
2023-03-30T19:03:21.827Z,2.90
2023-03-30T19:05:49.105Z,2.40
2023-03-30T19:08:18.616Z,2.70
2023-03-30T19:10:47.076Z,2.50
2023-03-30T19:13:15.993Z,2.40
2023-03-30T19:15:42.729Z,2.10
2023-03-30T19:18:09.341Z,2.50
2023-03-30T19:20:39.760Z,2.20
2023-03-30T19:23:07.473Z,2.30
2023-03-30T19:25:34.575Z,1.90
2023-03-30T19:28:03.614Z,1.90
2023-03-30T19:30:34.362Z,1.90
2023-03-30T19:33:05.937Z,1.80
2023-03-30T19:35:33.518Z,2.20
2023-03-30T19:38:00.240Z,2.60
2023-03-30T19:40:27.436Z,2.10
2023-03-30T19:42:54.031Z,2.10
2023-03-30T19:45:22.979Z,1.80
2023-03-30T19:47:50.444Z,1.60
2023-03-30T19:50:19.352Z,2.10
2023-03-30T19:52:48.826Z,2.70
2023-03-30T19:55:16.755Z,2.30
2023-03-30T19:57:43.543Z,1.90
2023-03-30T20:00:15.850Z,1.90
2023-03-30T20:02:51.790Z,2.40
2023-03-30T20:05:20.913Z,2.30
2023-03-30T20:07:48.112Z,2.00
2023-03-30T20:10:19.040Z,2.70
2023-03-30T20:12:46.700Z,2.50
2023-03-30T20:15:14.192Z,2.60
2023-03-30T20:17:42.016Z,2.40
2023-03-30T20:20:14.340Z,2.60
2023-03-30T20:22:42.640Z,2.50
2023-03-30T20:25:12.431Z,1.90
2023-03-30T20:27:40.024Z,1.70
2023-03-30T20:30:07.466Z,2.20
2023-03-30T20:32:34.730Z,2.00
2023-03-30T20:35:01.664Z,2.60
2023-03-30T20:37:28.252Z,3.20
2023-03-30T20:40:06.498Z,2.90
2023-03-30T20:42:33.110Z,3.10
2023-03-30T20:45:01.225Z,3.00
2023-03-30T20:47:30.989Z,2.90
2023-03-30T20:49:58.978Z,3.00
2023-03-30T20:52:26.447Z,2.70
2023-03-30T20:54:53.519Z,2.80
2023-03-30T20:57:21.541Z,3.00
2023-03-30T20:59:48.564Z,2.70
2023-03-30T21:02:15.835Z,2.90
2023-03-30T21:04:43.432Z,2.60
2023-03-30T21:07:11.379Z,2.10
2023-03-30T21:09:38.485Z,3.20
2023-03-30T21:12:05.544Z,2.80
2023-03-30T21:14:32.038Z,2.70
2023-03-30T21:16:58.844Z,2.90
2023-03-30T21:19:25.486Z,2.40
2023-03-30T21:21:52.100Z,2.20
2023-03-30T21:24:18.879Z,2.00
2023-03-30T21:26:45.573Z,2.10
2023-03-30T21:29:12.031Z,2.50
2023-03-30T21:31:38.634Z,2.60
2023-03-30T21:34:07.173Z,2.40
2023-03-30T21:36:33.892Z,3.20
2023-03-30T21:39:00.876Z,3.20
2023-03-30T21:41:28.886Z,2.20
2023-03-30T21:43:55.482Z,2.90
2023-03-30T21:46:24.088Z,3.00
2023-03-30T21:48:53.758Z,2.80
2023-03-30T21:51:26.430Z,2.60
2023-03-30T21:53:54.246Z,3.00
2023-03-30T21:56:23.355Z,3.30
2023-03-30T21:58:50.456Z,3.10
2023-03-30T22:01:18.316Z,3.00
2023-03-30T22:03:48.722Z,2.90
2023-03-30T22:06:17.323Z,3.10
2023-03-30T22:08:45.528Z,2.40
2023-03-30T22:11:20.244Z,2.60
2023-03-30T22:13:48.964Z,2.50
2023-03-30T22:16:36.640Z,2.10
2023-03-30T22:19:04.467Z,2.10
2023-03-30T22:21:37.292Z,2.60
2023-03-30T22:24:06.721Z,2.90
2023-03-30T22:26:34.682Z,2.70
2023-03-30T22:29:01.242Z,2.90
2023-03-30T22:31:28.307Z,3.00
2023-03-30T22:33:55.493Z,3.40
2023-03-30T22:36:29.936Z,3.20
2023-03-30T22:38:57.791Z,2.90
2023-03-30T22:41:26.557Z,2.90
2023-03-30T22:43:56.630Z,3.30
2023-03-30T22:46:26.164Z,3.90
2023-03-30T22:48:55.762Z,3.00
2023-03-30T22:51:26.327Z,3.10
2023-03-30T22:53:57.820Z,3.10
2023-03-30T22:56:27.693Z,2.70
2023-03-30T22:58:54.355Z,2.70
2023-03-30T23:01:21.751Z,2.50
2023-03-30T23:03:48.533Z,2.50
2023-03-30T23:06:19.002Z,2.60
2023-03-30T23:08:47.345Z,2.40
2023-03-30T23:11:14.080Z,2.60
2023-03-30T23:13:42.184Z,2.10
2023-03-30T23:16:10.632Z,1.90
2023-03-30T23:18:37.892Z,2.10
2023-03-30T23:21:07.135Z,2.40
2023-03-30T23:23:35.685Z,3.40
2023-03-30T23:26:03.009Z,3.70
2023-03-30T23:28:31.625Z,3.40
2023-03-30T23:30:59.326Z,3.50
2023-03-30T23:33:25.980Z,3.20
2023-03-30T23:35:53.356Z,2.80
2023-03-30T23:38:20.008Z,3.50
2023-03-30T23:40:46.928Z,3.10
2023-03-30T23:43:13.427Z,2.40
2023-03-30T23:45:43.221Z,2.60
2023-03-30T23:48:09.774Z,2.70
2023-03-30T23:50:36.886Z,2.30
2023-03-30T23:53:03.514Z,2.20
2023-03-30T23:55:29.962Z,2.50
2023-03-30T23:57:56.626Z,2.80
